TimePST,TemperatureF,Dew PointF,Humidity,Sea Level PressureIn,VisibilityMPH,Wind Direction,Wind SpeedMPH,Gust SpeedMPH,PrecipitationIn,Events,Conditions,WindDirDegrees,DateUTC
12:15 AM,48.2,46.4,93,30.18,10.0,SE,6.9,-,N/A,,Clear,130,2012-12-04 08:15:00
12:55 AM,48.2,46.4,93,30.18,10.0,SE,3.5,-,N/A,,Clear,140,2012-12-04 08:55:00
1:15 AM,48.2,46.4,93,30.19,10.0,ENE,3.5,-,N/A,,Clear,60,2012-12-04 09:15:00
1:35 AM,46.4,44.6,93,30.20,10.0,Calm,Calm,-,N/A,,Clear,0,2012-12-04 09:35:00
1:55 AM,48.2,44.6,87,30.21,10.0,Calm,Calm,-,N/A,,Clear,0,2012-12-04 09:55:00
2:15 AM,48.2,44.6,87,30.23,10.0,NE,3.5,-,N/A,,Mostly Cloudy,50,2012-12-04 10:15:00
2:35 AM,48.2,46.4,93,30.24,10.0,ENE,4.6,-,N/A,,Overcast,60,2012-12-04 10:35:00
2:55 AM,48.2,46.4,93,30.24,10.0,ENE,5.8,-,N/A,,Mostly Cloudy,70,2012-12-04 10:55:00
3:15 AM,48.2,44.6,87,30.22,10.0,East,9.2,-,N/A,,Partly Cloudy,90,2012-12-04 11:15:00
3:35 AM,46.4,44.6,93,30.20,10.0,SE,6.9,-,N/A,,Clear,130,2012-12-04 11:35:00
4:15 AM,46.4,42.8,87,30.19,10.0,Calm,Calm,-,N/A,,Clear,0,2012-12-04 12:15:00
4:35 AM,44.6,42.8,93,30.20,10.0,Calm,Calm,-,N/A,,Clear,0,2012-12-04 12:35:00
4:55 AM,44.6,42.8,93,30.21,10.0,Calm,Calm,-,N/A,,Clear,0,2012-12-04 12:55:00
5:15 AM,42.8,39.2,87,30.23,10.0,ESE,3.5,-,N/A,,Clear,120,2012-12-04 13:15:00
5:35 AM,42.8,39.2,87,30.23,10.0,SSE,4.6,-,N/A,,Clear,150,2012-12-04 13:35:00
5:55 AM,42.8,39.2,87,30.24,10.0,SE,5.8,-,N/A,,Clear,130,2012-12-04 13:55:00
6:15 AM,42.8,39.2,87,30.25,10.0,Calm,Calm,-,N/A,,Clear,0,2012-12-04 14:15:00
6:35 AM,42.8,39.2,87,30.26,10.0,Calm,Calm,-,N/A,,Clear,0,2012-12-04 14:35:00
6:55 AM,42.8,41.0,93,30.28,10.0,Calm,Calm,-,N/A,,Clear,0,2012-12-04 14:55:00
7:15 AM,42.8,39.2,87,30.28,10.0,East,5.8,-,N/A,,Clear,100,2012-12-04 15:15:00
7:35 AM,44.6,42.8,93,30.29,10.0,ENE,5.8,-,N/A,,Clear,70,2012-12-04 15:35:00
7:55 AM,46.4,42.8,87,30.30,10.0,East,3.5,-,N/A,,Clear,80,2012-12-04 15:55:00
8:15 AM,48.2,44.6,87,30.30,10.0,Calm,Calm,-,N/A,,Clear,0,2012-12-04 16:15:00
8:35 AM,50.0,46.4,87,30.29,10.0,East,3.5,-,N/A,,Clear,100,2012-12-04 16:35:00
8:55 AM,51.8,48.2,88,30.28,10.0,Calm,Calm,-,N/A,,Clear,0,2012-12-04 16:55:00
9:15 AM,53.6,48.2,82,30.28,10.0,Calm,Calm,-,N/A,,Clear,0,2012-12-04 17:15:00
9:35 AM,55.4,48.2,77,30.28,10.0,Calm,Calm,-,N/A,,Clear,0,2012-12-04 17:35:00
10:15 AM,55.4,50.0,82,30.29,10.0,WSW,6.9,-,N/A,,Clear,240,2012-12-04 18:15:00
10:35 AM,55.4,50.0,82,30.29,10.0,West,5.8,-,N/A,,Clear,260,2012-12-04 18:35:00
10:55 AM,55.4,51.8,88,30.29,9.0,West,4.6,-,N/A,,Clear,260,2012-12-04 18:55:00
11:15 AM,55.4,51.8,88,30.28,8.0,Calm,Calm,-,N/A,,Clear,0,2012-12-04 19:15:00
11:35 AM,57.2,51.8,82,30.27,9.0,Calm,Calm,-,N/A,,Scattered Clouds,0,2012-12-04 19:35:00
11:55 AM,59.0,51.8,77,30.27,9.0,West,3.5,-,N/A,,Scattered Clouds,270,2012-12-04 19:55:00
12:15 PM,59.0,51.8,77,30.26,9.0,Calm,Calm,-,N/A,,Mostly Cloudy,0,2012-12-04 20:15:00
12:35 PM,60.8,51.8,72,30.24,10.0,NE,4.6,-,N/A,,Partly Cloudy,50,2012-12-04 20:35:00
12:55 PM,60.8,53.6,77,30.24,10.0,Calm,Calm,-,N/A,,Clear,0,2012-12-04 20:55:00
1:15 PM,62.6,53.6,72,30.22,10.0,Calm,Calm,-,N/A,,Clear,0,2012-12-04 21:15:00
1:35 PM,62.6,51.8,68,30.21,10.0,Calm,Calm,-,N/A,,Clear,0,2012-12-04 21:35:00
1:55 PM,62.6,51.8,68,30.20,10.0,Calm,Calm,-,N/A,,Clear,0,2012-12-04 21:55:00
2:15 PM,62.6,51.8,68,30.19,10.0,West,3.5,-,N/A,,Clear,280,2012-12-04 22:15:00
2:35 PM,62.6,51.8,68,30.20,10.0,WNW,4.6,-,N/A,,Clear,290,2012-12-04 22:35:00
2:55 PM,62.6,53.6,72,30.20,10.0,WNW,6.9,-,N/A,,Clear,290,2012-12-04 22:55:00
3:15 PM,60.8,51.8,72,30.21,10.0,WNW,6.9,-,N/A,,Clear,300,2012-12-04 23:15:00
3:35 PM,60.8,53.6,77,30.20,8.0,NW,4.6,-,N/A,,Clear,320,2012-12-04 23:35:00
3:55 PM,60.8,53.6,77,30.21,6.0,North,5.8,-,N/A,,Clear,350,2012-12-04 23:55:00
4:15 PM,59.0,53.6,82,30.21,5.0,North,4.6,-,N/A,,Clear,350,2012-12-05 00:15:00
4:35 PM,57.2,53.6,88,30.21,5.0,NNW,3.5,-,N/A,,Clear,340,2012-12-05 00:35:00
4:55 PM,57.2,53.6,88,30.21,5.0,Calm,Calm,-,N/A,,Clear,0,2012-12-05 00:55:00
5:15 PM,57.2,53.6,88,30.21,6.0,Calm,Calm,-,N/A,,Clear,0,2012-12-05 01:15:00
5:35 PM,55.4,51.8,88,30.22,5.0,North,3.5,-,N/A,,Clear,360,2012-12-05 01:35:00
5:55 PM,55.4,51.8,88,30.22,3.0,Calm,Calm,-,N/A,,Clear,0,2012-12-05 01:55:00
6:15 PM,53.6,51.8,94,30.22,4.0,Calm,Calm,-,N/A,,Clear,0,2012-12-05 02:15:00
6:35 PM,53.6,51.8,94,30.21,4.0,East,4.6,-,N/A,,Clear,80,2012-12-05 02:35:00
6:55 PM,53.6,50.0,88,30.22,3.0,ESE,3.5,-,N/A,,Clear,120,2012-12-05 02:55:00
7:15 PM,53.6,50.0,88,30.23,3.0,Calm,Calm,-,N/A,,Clear,0,2012-12-05 03:15:00
7:35 PM,51.8,48.2,88,30.23,3.0,South,3.5,-,N/A,,Clear,180,2012-12-05 03:35:00
7:55 PM,51.8,48.2,88,30.23,2.5,South,3.5,-,N/A,,Clear,180,2012-12-05 03:55:00
8:15 PM,51.8,48.2,88,30.23,3.0,SE,5.8,-,N/A,,Clear,130,2012-12-05 04:15:00
8:35 PM,51.8,48.2,88,30.23,2.5,ESE,4.6,-,N/A,,Clear,120,2012-12-05 04:35:00
8:55 PM,51.8,48.2,88,30.23,3.0,ESE,4.6,-,N/A,,Clear,120,2012-12-05 04:55:00
9:15 PM,51.8,48.2,88,30.23,3.0,SSE,5.8,-,N/A,,Clear,150,2012-12-05 05:15:00
9:35 PM,51.8,48.2,88,30.23,4.0,SE,4.6,-,N/A,,Clear,140,2012-12-05 05:35:00
9:55 PM,51.8,48.2,88,30.24,3.0,SE,3.5,-,N/A,,Clear,140,2012-12-05 05:55:00
10:15 PM,50.0,48.2,94,30.24,4.0,Calm,Calm,-,N/A,,Clear,0,2012-12-05 06:15:00
10:35 PM,48.2,46.4,93,30.24,3.0,Calm,Calm,-,N/A,,Clear,0,2012-12-05 06:35:00
10:55 PM,48.2,44.6,87,30.24,5.0,Calm,Calm,-,N/A,,Clear,0,2012-12-05 06:55:00
11:15 PM,46.4,44.6,93,30.24,5.0,Calm,Calm,-,N/A,,Clear,0,2012-12-05 07:15:00
11:55 PM,46.4,42.8,87,30.23,6.0,Calm,Calm,-,N/A,,Clear,0,2012-12-05 07:55:00